createdAt,value
2022-11-22T00:00:32.718Z,3.18
2022-11-22T00:01:36.293Z,3.21
2022-11-22T00:02:40.264Z,3.26
2022-11-22T00:03:45.066Z,3.25
2022-11-22T00:04:48.738Z,3.28
2022-11-22T00:05:52.163Z,3.27
2022-11-22T00:06:57.407Z,3.27
2022-11-22T00:07:59.824Z,3.26
2022-11-22T00:09:03.280Z,3.30
2022-11-22T00:10:07.411Z,3.35
2022-11-22T00:11:10.695Z,3.29
2022-11-22T00:12:13.711Z,3.21
2022-11-22T00:13:19.273Z,3.26
2022-11-22T00:14:22.426Z,3.20
2022-11-22T00:15:24.611Z,3.16
2022-11-22T00:16:30.518Z,3.09
2022-11-22T00:17:34.273Z,3.06
2022-11-22T00:18:38.397Z,3.04
2022-11-22T00:19:42.809Z,3.13
2022-11-22T00:20:46.922Z,3.10
2022-11-22T00:21:51.272Z,2.99
2022-11-22T00:22:54.475Z,2.95
2022-11-22T00:23:58.197Z,3.01
2022-11-22T00:25:02.857Z,3.06
2022-11-22T00:26:14.927Z,2.89
2022-11-22T00:27:19.859Z,2.92
2022-11-22T00:28:23.070Z,2.99
2022-11-22T00:29:26.580Z,3.04
2022-11-22T00:30:30.195Z,3.12
2022-11-22T00:31:33.210Z,3.15
2022-11-22T00:32:39.277Z,3.21
2022-11-22T00:33:44.275Z,3.21
2022-11-22T00:34:48.080Z,3.20
2022-11-22T00:35:51.155Z,3.25
2022-11-22T00:36:54.455Z,3.20
2022-11-22T00:37:57.643Z,3.20
2022-11-22T00:39:01.159Z,2.94
2022-11-22T00:40:05.634Z,2.80
2022-11-22T00:41:08.784Z,2.75
2022-11-22T00:42:12.309Z,2.67
2022-11-22T00:43:15.597Z,2.65
2022-11-22T00:44:18.998Z,2.63
2022-11-22T00:45:21.772Z,2.65
2022-11-22T00:46:25.277Z,2.63
2022-11-22T00:47:28.161Z,2.64
2022-11-22T00:48:31.445Z,2.60
2022-11-22T00:49:36.115Z,2.65
2022-11-22T00:50:39.607Z,2.66
2022-11-22T00:51:42.059Z,2.78
2022-11-22T00:52:44.844Z,2.78
2022-11-22T00:53:48.220Z,2.72
2022-11-22T00:54:54.718Z,2.84
2022-11-22T00:55:55.557Z,2.99
2022-11-22T00:56:58.449Z,3.09
2022-11-22T00:58:01.115Z,2.88
2022-11-22T00:59:10.643Z,2.74
2022-11-22T01:00:14.271Z,2.72
2022-11-22T01:01:17.451Z,2.77
2022-11-22T01:02:21.195Z,2.70
2022-11-22T01:03:23.434Z,2.52
2022-11-22T01:04:26.844Z,2.46
2022-11-22T01:05:29.517Z,2.49
2022-11-22T01:06:32.602Z,2.59
2022-11-22T01:07:36.155Z,2.56
2022-11-22T01:08:39.820Z,2.52
2022-11-22T01:09:42.939Z,2.47
2022-11-22T01:10:46.711Z,2.42
2022-11-22T01:11:51.063Z,2.40
2022-11-22T01:12:53.737Z,2.52
2022-11-22T01:13:57.971Z,2.50
2022-11-22T01:15:01.269Z,2.50
2022-11-22T01:16:07.720Z,2.46
2022-11-22T01:17:11.092Z,2.60
2022-11-22T01:18:16.067Z,2.61
2022-11-22T01:19:19.142Z,2.57
2022-11-22T01:20:24.009Z,2.67
2022-11-22T01:21:27.154Z,2.49
2022-11-22T01:22:30.385Z,2.17
2022-11-22T01:23:34.949Z,2.21
2022-11-22T01:24:39.907Z,2.29
2022-11-22T01:25:44.817Z,2.24
2022-11-22T01:26:49.135Z,2.16
2022-11-22T01:27:53.148Z,2.23
2022-11-22T01:28:56.535Z,2.21
2022-11-22T01:30:00.051Z,2.24
2022-11-22T01:31:02.265Z,2.37
2022-11-22T01:32:06.058Z,2.30
2022-11-22T01:33:11.298Z,2.24
2022-11-22T01:34:14.754Z,2.28
2022-11-22T01:35:18.027Z,2.24
2022-11-22T01:36:23.692Z,2.20
2022-11-22T01:37:28.974Z,2.14
2022-11-22T01:38:32.581Z,2.11
2022-11-22T01:39:35.982Z,2.19
2022-11-22T01:40:41.265Z,2.12
2022-11-22T01:41:46.162Z,2.16
2022-11-22T01:42:51.824Z,2.14
2022-11-22T01:43:55.227Z,2.04
2022-11-22T01:44:59.776Z,2.03
2022-11-22T01:46:22.080Z,2.00
2022-11-22T01:47:26.498Z,2.06
2022-11-22T01:48:37.889Z,1.99
2022-11-22T01:49:47.373Z,1.91
2022-11-22T01:50:56.226Z,1.83
2022-11-22T01:52:01.540Z,1.86
2022-11-22T01:53:06.762Z,1.92
2022-11-22T01:54:11.265Z,1.96
2022-11-22T01:55:13.924Z,1.90
2022-11-22T01:56:19.529Z,1.80
2022-11-22T01:57:24.847Z,1.70
2022-11-22T01:58:30.196Z,1.55
2022-11-22T01:59:34.852Z,1.70
2022-11-22T02:00:40.621Z,1.70
2022-11-22T02:01:44.828Z,1.57
2022-11-22T02:02:50.482Z,1.64
2022-11-22T02:03:54.840Z,1.63
2022-11-22T02:05:00.103Z,1.70
2022-11-22T02:06:05.195Z,1.64
2022-11-22T02:07:11.145Z,1.63
2022-11-22T02:08:17.499Z,1.69
2022-11-22T02:09:24.381Z,1.74
2022-11-22T02:10:29.638Z,1.74
2022-11-22T02:11:34.619Z,1.67
2022-11-22T02:12:42.174Z,1.69
2022-11-22T02:13:46.305Z,1.70
2022-11-22T02:14:50.343Z,1.53
2022-11-22T02:15:53.745Z,1.58
2022-11-22T02:16:57.655Z,1.52
2022-11-22T02:18:01.474Z,1.50
2022-11-22T02:19:06.128Z,1.54
2022-11-22T02:20:09.884Z,1.67
2022-11-22T02:21:13.464Z,1.70
2022-11-22T02:22:22.490Z,1.63
2022-11-22T02:23:33.022Z,1.53
2022-11-22T02:24:38.106Z,1.51
2022-11-22T02:25:43.347Z,1.60
2022-11-22T02:26:47.072Z,1.56
2022-11-22T02:27:50.994Z,1.46
2022-11-22T02:28:57.104Z,1.36
2022-11-22T02:30:00.617Z,1.52
2022-11-22T02:31:03.943Z,1.59
2022-11-22T02:32:08.879Z,1.51
2022-11-22T02:33:14.056Z,1.50
2022-11-22T02:34:16.830Z,1.48
2022-11-22T02:35:21.067Z,1.52
2022-11-22T02:36:24.885Z,1.43
2022-11-22T02:37:29.429Z,1.53
2022-11-22T02:38:35.467Z,1.47
2022-11-22T02:39:38.787Z,1.39
2022-11-22T02:40:52.586Z,1.50
2022-11-22T02:41:56.823Z,1.55
2022-11-22T02:43:02.209Z,1.63
2022-11-22T02:44:08.813Z,1.57
2022-11-22T02:45:12.103Z,1.58
2022-11-22T02:46:18.523Z,1.56
2022-11-22T02:47:25.063Z,1.53
2022-11-22T02:48:29.151Z,1.33
2022-11-22T02:49:31.763Z,1.33
2022-11-22T02:50:35.726Z,1.37
2022-11-22T02:51:39.136Z,1.55
2022-11-22T02:52:41.682Z,1.49
2022-11-22T02:53:44.355Z,1.44
2022-11-22T02:54:48.471Z,1.40
2022-11-22T02:55:51.672Z,1.34
2022-11-22T02:56:54.039Z,1.41
2022-11-22T02:57:57.251Z,1.58
2022-11-22T02:59:00.630Z,1.64
2022-11-22T03:00:04.972Z,1.55
2022-11-22T03:01:07.340Z,1.58
2022-11-22T03:02:10.508Z,1.55
2022-11-22T03:03:13.807Z,1.60
2022-11-22T03:04:25.595Z,1.66
2022-11-22T03:05:28.875Z,1.63
2022-11-22T03:06:32.479Z,1.44
2022-11-22T03:07:39.068Z,1.33
2022-11-22T03:08:42.413Z,1.31
2022-11-22T03:09:52.576Z,1.18
2022-11-22T03:10:57.883Z,1.19
2022-11-22T03:12:01.285Z,1.11
2022-11-22T03:13:04.893Z,1.10
2022-11-22T03:14:07.895Z,1.16
2022-11-22T03:15:15.875Z,1.09
2022-11-22T03:16:30.600Z,1.13
2022-11-22T03:17:33.977Z,1.31
2022-11-22T03:18:37.877Z,1.30
2022-11-22T03:19:40.232Z,1.30
2022-11-22T03:20:45.722Z,1.18
2022-11-22T03:21:50.172Z,1.25
2022-11-22T03:22:53.452Z,1.29
2022-11-22T03:23:56.540Z,1.20
2022-11-22T03:25:02.346Z,1.12
2022-11-22T03:26:09.294Z,1.13
2022-11-22T03:27:12.488Z,1.12
2022-11-22T03:28:18.140Z,0.94
2022-11-22T03:29:21.354Z,0.92
2022-11-22T03:30:26.770Z,1.00
2022-11-22T03:31:31.320Z,1.22
2022-11-22T03:32:34.500Z,1.28
2022-11-22T03:33:38.016Z,1.17
2022-11-22T03:34:41.404Z,1.16
2022-11-22T03:35:44.702Z,1.09
2022-11-22T03:36:51.376Z,1.17
2022-11-22T03:37:54.021Z,1.05
2022-11-22T03:38:57.525Z,1.03
2022-11-22T03:40:01.031Z,1.08
2022-11-22T03:41:03.396Z,1.10
2022-11-22T03:42:06.907Z,1.06
2022-11-22T03:43:10.396Z,0.98
2022-11-22T03:44:14.009Z,1.14
2022-11-22T03:45:16.178Z,1.01
2022-11-22T03:46:22.898Z,1.16
2022-11-22T03:47:25.242Z,1.11
2022-11-22T03:48:28.879Z,1.04
2022-11-22T03:49:31.530Z,0.96
2022-11-22T03:50:34.399Z,0.89
2022-11-22T03:51:38.020Z,0.85
2022-11-22T03:52:41.429Z,0.89
2022-11-22T03:53:46.525Z,1.05
2022-11-22T03:54:49.893Z,0.95
2022-11-22T03:55:53.113Z,0.90
2022-11-22T03:56:56.335Z,0.93
2022-11-22T03:57:59.882Z,1.03
2022-11-22T03:59:02.959Z,1.11
2022-11-22T04:00:06.473Z,0.94
2022-11-22T04:01:16.338Z,0.86
2022-11-22T04:02:17.873Z,0.96
2022-11-22T04:03:21.086Z,0.80
2022-11-22T04:04:25.541Z,0.78
2022-11-22T04:05:28.751Z,0.70
2022-11-22T04:06:31.921Z,0.73
2022-11-22T04:07:36.930Z,0.81
2022-11-22T04:08:40.727Z,0.79
2022-11-22T04:09:43.649Z,0.77
2022-11-22T04:10:49.877Z,0.85
2022-11-22T04:11:53.179Z,0.97
2022-11-22T04:12:59.891Z,0.79
2022-11-22T04:14:20.660Z,0.82
2022-11-22T04:15:23.887Z,0.67
2022-11-22T04:16:27.113Z,0.69
2022-11-22T04:17:44.665Z,0.79
2022-11-22T04:18:48.044Z,0.84
2022-11-22T04:20:04.601Z,0.88
2022-11-22T04:21:27.023Z,0.88
2022-11-22T04:22:30.946Z,0.87
2022-11-22T04:23:34.516Z,0.84
2022-11-22T04:24:57.800Z,0.86
2022-11-22T04:26:01.227Z,0.78
2022-11-22T04:27:06.743Z,0.77
2022-11-22T04:28:11.028Z,0.77
2022-11-22T04:29:16.208Z,0.84
2022-11-22T04:30:21.428Z,0.79
2022-11-22T04:31:43.468Z,0.87
2022-11-22T04:32:46.659Z,1.02
2022-11-22T04:35:21.777Z,0.96
2022-11-22T04:36:25.062Z,0.80
2022-11-22T04:37:27.210Z,0.78
2022-11-22T04:38:30.414Z,0.89
2022-11-22T04:39:33.226Z,0.88
2022-11-22T04:40:37.828Z,0.98
2022-11-22T04:41:40.405Z,0.94
2022-11-22T04:43:01.248Z,1.02
2022-11-22T04:44:23.450Z,1.09
2022-11-22T04:45:27.167Z,1.18
2022-11-22T04:46:34.937Z,1.15
2022-11-22T04:47:56.733Z,1.07
2022-11-22T04:48:59.283Z,1.07
2022-11-22T04:50:03.117Z,1.14
2022-11-22T04:51:24.692Z,1.24
2022-11-22T04:52:46.686Z,1.15
2022-11-22T04:53:50.711Z,1.19
2022-11-22T04:54:54.007Z,1.07
2022-11-22T04:55:56.290Z,1.03
2022-11-22T04:57:00.079Z,1.11
2022-11-22T04:58:04.201Z,1.05
2022-11-22T04:59:07.612Z,1.14
2022-11-22T05:00:11.637Z,1.20
2022-11-22T05:01:15.132Z,1.28
2022-11-22T05:02:18.218Z,1.26
2022-11-22T05:03:21.409Z,1.35
2022-11-22T05:04:24.717Z,1.34
2022-11-22T05:05:29.580Z,1.27
2022-11-22T05:06:32.794Z,1.17
2022-11-22T05:07:36.537Z,1.14
2022-11-22T05:08:40.511Z,1.22
2022-11-22T05:09:43.913Z,1.29
2022-11-22T05:10:58.803Z,1.25
2022-11-22T05:12:03.081Z,1.27
2022-11-22T05:13:06.543Z,1.26
2022-11-22T05:14:11.093Z,1.20
2022-11-22T05:15:14.484Z,1.26
2022-11-22T05:16:17.791Z,1.26
2022-11-22T05:17:21.180Z,1.19
2022-11-22T05:18:24.829Z,1.06
2022-11-22T05:19:27.458Z,1.06
2022-11-22T05:20:31.079Z,1.05
2022-11-22T05:21:36.338Z,1.07
2022-11-22T05:22:58.758Z,1.14
2022-11-22T05:24:01.753Z,1.09
2022-11-22T05:25:05.388Z,1.09
2022-11-22T05:26:09.809Z,1.06
2022-11-22T05:27:14.696Z,0.96
2022-11-22T05:28:17.029Z,1.01
2022-11-22T05:29:20.416Z,1.05
2022-11-22T05:30:24.035Z,1.01
2022-11-22T05:31:28.293Z,1.11
2022-11-22T05:32:35.042Z,1.03
2022-11-22T05:33:40.523Z,1.19
2022-11-22T05:34:43.898Z,1.10
2022-11-22T05:35:46.099Z,1.01
2022-11-22T05:36:49.347Z,0.96
2022-11-22T05:37:52.645Z,1.03
2022-11-22T05:38:55.940Z,1.05
2022-11-22T05:40:00.314Z,1.01
2022-11-22T05:41:07.649Z,0.99
2022-11-22T05:42:10.760Z,0.99
2022-11-22T05:43:13.919Z,0.90
2022-11-22T05:44:17.340Z,1.05
2022-11-22T05:45:20.928Z,1.08
2022-11-22T05:47:37.141Z,1.15
2022-11-22T05:48:42.833Z,1.07
2022-11-22T05:49:49.587Z,1.22
2022-11-22T05:50:54.434Z,1.22
2022-11-22T05:51:57.862Z,1.27
2022-11-22T05:53:02.161Z,1.27
2022-11-22T05:54:04.546Z,1.24
2022-11-22T05:55:09.593Z,1.28
2022-11-22T05:56:14.894Z,1.40
2022-11-22T05:57:19.548Z,1.52
2022-11-22T05:58:24.087Z,1.62
2022-11-22T05:59:32.224Z,1.69
2022-11-22T06:00:35.616Z,1.70
2022-11-22T06:01:38.761Z,1.58
2022-11-22T06:02:42.227Z,1.57
2022-11-22T06:03:46.113Z,1.51
2022-11-22T06:04:49.723Z,1.52
2022-11-22T06:05:53.540Z,1.36
2022-11-22T06:06:55.887Z,1.44
2022-11-22T06:08:00.795Z,1.47
2022-11-22T06:09:03.839Z,1.55
2022-11-22T06:10:08.806Z,1.59
2022-11-22T06:11:16.393Z,1.66
2022-11-22T06:12:20.526Z,1.63
2022-11-22T06:13:24.705Z,1.62
2022-11-22T06:14:27.880Z,1.62
2022-11-22T06:15:34.676Z,1.60
2022-11-22T06:16:36.947Z,1.50
2022-11-22T06:17:39.083Z,1.48
2022-11-22T06:18:43.122Z,1.54
2022-11-22T06:19:46.105Z,1.62
2022-11-22T06:20:48.775Z,1.62
2022-11-22T06:21:52.383Z,1.66
2022-11-22T06:22:57.486Z,1.74
2022-11-22T06:24:02.107Z,1.58
2022-11-22T06:25:05.718Z,1.65
2022-11-22T06:26:10.736Z,1.53
2022-11-22T06:27:14.301Z,1.48
2022-11-22T06:28:16.741Z,1.64
2022-11-22T06:29:19.517Z,1.62
2022-11-22T06:30:22.826Z,1.80
2022-11-22T06:31:28.248Z,1.87
2022-11-22T06:32:34.535Z,1.83
2022-11-22T06:33:38.029Z,1.64
2022-11-22T06:34:41.544Z,1.75
2022-11-22T06:35:44.737Z,1.77
2022-11-22T06:36:47.303Z,1.72
2022-11-22T06:37:54.890Z,1.73
2022-11-22T06:38:56.819Z,1.57
2022-11-22T06:39:59.164Z,1.62
2022-11-22T06:41:04.977Z,1.69
2022-11-22T06:42:09.346Z,1.82
2022-11-22T06:43:11.572Z,1.82
2022-11-22T06:44:14.675Z,1.83
2022-11-22T06:45:19.657Z,1.89
2022-11-22T06:46:23.223Z,1.65
2022-11-22T06:47:26.565Z,1.72
2022-11-22T06:48:29.826Z,1.84
2022-11-22T06:49:32.722Z,2.00
2022-11-22T06:50:38.192Z,2.08
2022-11-22T06:51:41.805Z,1.85
2022-11-22T06:52:46.789Z,1.73
2022-11-22T06:53:51.524Z,1.65
2022-11-22T06:54:54.300Z,1.84
2022-11-22T06:56:05.786Z,1.99
2022-11-22T06:57:09.361Z,2.06
2022-11-22T06:58:12.639Z,2.03
2022-11-22T06:59:16.156Z,1.83
2022-11-22T07:00:20.392Z,1.90
2022-11-22T07:01:25.718Z,1.91
2022-11-22T07:02:29.123Z,1.94
2022-11-22T07:03:31.847Z,1.99
2022-11-22T07:04:36.367Z,1.95
2022-11-22T07:05:41.275Z,1.81
2022-11-22T07:06:46.462Z,1.67
2022-11-22T07:07:49.803Z,1.72
2022-11-22T07:08:53.340Z,1.92
2022-11-22T07:09:57.149Z,1.96
2022-11-22T07:11:04.608Z,1.95
2022-11-22T07:12:07.768Z,1.85
2022-11-22T07:13:11.570Z,1.84
2022-11-22T07:14:14.822Z,1.90
2022-11-22T07:15:17.989Z,1.85
2022-11-22T07:16:22.042Z,1.94
2022-11-22T07:17:25.559Z,1.74
2022-11-22T07:18:30.949Z,1.81
2022-11-22T10:56:31.943Z,3.35
2022-11-22T10:57:54.957Z,3.41
2022-11-22T10:59:17.597Z,3.27
2022-11-22T11:00:23.419Z,3.30
2022-11-22T11:01:29.705Z,3.45
2022-11-22T11:02:50.759Z,3.41
2022-11-22T11:04:00.556Z,3.52
2022-11-22T11:05:07.064Z,3.56
2022-11-22T11:06:33.503Z,3.59
2022-11-22T11:07:29.561Z,3.58
2022-11-22T11:09:12.478Z,3.40
2022-11-22T11:10:11.818Z,3.41
2022-11-22T11:11:01.785Z,3.49
2022-11-22T11:12:12.831Z,3.41
2022-11-22T11:13:18.832Z,3.18
2022-11-22T11:14:32.662Z,3.35
2022-11-22T11:15:38.875Z,3.29
2022-11-22T11:16:42.091Z,3.31
2022-11-22T11:17:46.511Z,3.33
2022-11-22T11:19:01.513Z,3.48
2022-11-22T11:20:06.486Z,3.45
2022-11-22T11:21:11.859Z,3.37
2022-11-22T11:22:20.503Z,3.43
2022-11-22T11:23:20.939Z,3.49
2022-11-22T11:24:24.454Z,3.49
2022-11-22T11:25:31.486Z,3.37
2022-11-22T11:26:36.174Z,3.36
2022-11-22T11:27:42.215Z,3.37
2022-11-22T11:28:47.188Z,3.38
2022-11-22T11:29:52.640Z,3.30
2022-11-22T11:30:58.025Z,3.30
2022-11-22T11:32:17.356Z,3.35
2022-11-22T11:33:21.979Z,3.33
2022-11-22T11:34:30.507Z,3.35
2022-11-22T11:35:34.396Z,3.17
2022-11-22T11:36:39.668Z,3.12
2022-11-22T11:37:45.710Z,3.27
2022-11-22T11:38:50.646Z,3.17
2022-11-22T11:39:54.033Z,3.03
2022-11-22T11:40:56.484Z,3.11
2022-11-22T11:42:00.441Z,2.88
2022-11-22T11:43:17.999Z,2.80
2022-11-22T11:44:33.526Z,2.82
2022-11-22T11:47:00.534Z,3.04
2022-11-22T11:48:06.141Z,3.10
2022-11-22T11:49:17.044Z,2.94
2022-11-22T11:50:23.948Z,3.05
2022-11-22T11:51:33.128Z,3.06
2022-11-22T11:52:36.839Z,3.12
2022-11-22T11:53:40.565Z,3.09
2022-11-22T11:54:47.608Z,3.21
2022-11-22T11:55:51.123Z,3.21
2022-11-22T11:56:57.980Z,3.15
2022-11-22T11:58:02.833Z,2.98
2022-11-22T11:59:07.892Z,2.95
2022-11-22T12:00:12.274Z,2.98
2022-11-22T12:01:17.526Z,3.01
2022-11-22T12:02:24.768Z,2.97
2022-11-22T12:03:31.375Z,2.93
2022-11-22T12:04:36.595Z,2.93
2022-11-22T12:05:40.028Z,3.01
2022-11-22T12:06:47.169Z,3.02
2022-11-22T12:07:51.845Z,3.11
2022-11-22T12:08:55.537Z,3.12
2022-11-22T12:09:58.310Z,3.11
2022-11-22T12:11:08.594Z,3.01
2022-11-22T12:12:17.113Z,2.91
2022-11-22T12:13:32.952Z,2.83
2022-11-22T12:15:09.299Z,2.99
2022-11-22T12:15:47.588Z,2.96
2022-11-22T12:16:52.648Z,2.94
2022-11-22T12:18:03.465Z,2.98
2022-11-22T12:19:08.744Z,2.94
2022-11-22T12:20:25.973Z,2.85
2022-11-22T12:21:58.102Z,2.84
2022-11-22T12:23:12.215Z,2.89
2022-11-22T12:24:52.308Z,2.86
2022-11-22T12:25:41.927Z,2.89
2022-11-22T12:26:44.367Z,2.80
2022-11-22T12:27:47.868Z,2.75
2022-11-22T12:28:52.823Z,2.65
2022-11-22T12:29:58.140Z,2.62
2022-11-22T12:31:11.980Z,2.63
2022-11-22T12:32:30.840Z,2.71
2022-11-22T12:34:59.450Z,2.42
2022-11-22T12:36:09.004Z,2.43
2022-11-22T12:37:15.371Z,2.54
2022-11-22T12:38:20.424Z,2.46
2022-11-22T12:39:24.531Z,2.50
2022-11-22T12:40:29.707Z,2.41
2022-11-22T12:41:35.942Z,2.35
2022-11-22T12:42:46.964Z,2.40
2022-11-22T12:43:58.097Z,2.38
2022-11-22T12:45:07.497Z,2.40
2022-11-22T12:46:12.507Z,2.31
2022-11-22T12:47:17.802Z,2.34
2022-11-22T12:48:26.586Z,2.36
2022-11-22T12:49:30.841Z,2.37
2022-11-22T12:50:35.406Z,2.19
2022-11-22T12:51:50.402Z,2.14
2022-11-22T12:52:55.900Z,2.06
2022-11-22T12:54:04.484Z,2.15
2022-11-22T12:55:21.816Z,2.23
2022-11-22T12:56:43.399Z,2.37
2022-11-22T12:57:52.851Z,2.34
2022-11-22T12:59:06.277Z,2.23
2022-11-22T13:00:11.656Z,2.17
2022-11-22T13:01:21.206Z,2.12
2022-11-22T13:02:42.895Z,2.00
2022-11-22T13:03:48.527Z,2.01
2022-11-22T13:04:55.244Z,2.17
2022-11-22T13:05:59.790Z,2.07
2022-11-22T13:07:05.140Z,2.05
2022-11-22T13:08:19.648Z,2.16
2022-11-22T13:09:30.089Z,2.22
2022-11-22T13:10:40.997Z,2.17
2022-11-22T13:11:46.327Z,2.08
2022-11-22T13:12:50.066Z,2.16
2022-11-22T13:13:54.074Z,2.09
2022-11-22T13:15:02.516Z,2.09
2022-11-22T13:16:10.886Z,2.04
2022-11-22T13:17:17.166Z,2.11
2022-11-22T13:18:25.906Z,1.98
2022-11-22T13:19:30.668Z,1.84
2022-11-22T13:20:41.249Z,1.96
2022-11-22T13:21:58.321Z,2.10
2022-11-22T13:23:09.549Z,2.06
2022-11-22T13:24:30.908Z,2.10
2022-11-22T13:25:36.017Z,2.21
2022-11-22T13:26:45.084Z,2.17
2022-11-22T13:27:50.650Z,2.07
2022-11-22T13:28:55.592Z,2.01
2022-11-22T13:30:02.116Z,2.06
2022-11-22T13:31:06.257Z,2.01
2022-11-22T13:32:13.763Z,1.91
2022-11-22T13:33:18.387Z,1.87
2022-11-22T13:34:23.446Z,1.83
2022-11-22T13:35:40.187Z,1.88
2022-11-22T13:36:46.177Z,1.92
2022-11-22T13:37:53.401Z,1.88
2022-11-22T13:38:59.087Z,1.86
2022-11-22T13:40:13.674Z,1.89
2022-11-22T13:41:21.151Z,1.86
2022-11-22T13:42:25.387Z,1.88
2022-11-22T13:43:34.130Z,1.94
2022-11-22T13:44:43.005Z,2.07
2022-11-22T13:45:57.753Z,2.09
2022-11-22T13:47:05.720Z,2.19
2022-11-22T13:48:10.800Z,2.06
2022-11-22T13:49:15.976Z,2.13
2022-11-22T13:50:38.698Z,2.24
2022-11-22T13:51:51.238Z,2.13
2022-11-22T13:52:53.745Z,2.11
2022-11-22T13:53:59.807Z,2.16
2022-11-22T13:55:05.872Z,2.16
2022-11-22T13:56:18.475Z,2.13
2022-11-22T13:57:32.305Z,2.13
2022-11-22T13:58:52.935Z,2.16
2022-11-22T14:00:15.683Z,2.05
2022-11-22T14:01:39.857Z,2.00
2022-11-22T14:02:51.089Z,2.13
2022-11-22T14:03:54.776Z,2.22
2022-11-22T14:04:57.153Z,2.26
2022-11-22T14:06:01.296Z,2.31
2022-11-22T14:07:09.558Z,2.27
2022-11-22T14:08:33.171Z,2.24
2022-11-22T14:09:47.082Z,2.05
2022-11-22T14:10:55.451Z,1.97
2022-11-22T14:12:05.423Z,2.11
2022-11-22T14:13:13.296Z,2.06
2022-11-22T14:14:18.358Z,1.96
2022-11-22T14:15:26.573Z,1.99
2022-11-22T14:16:46.982Z,1.99
2022-11-22T14:17:53.143Z,2.00
2022-11-22T14:19:10.000Z,2.13
2022-11-22T14:20:19.970Z,2.16
2022-11-22T14:21:42.077Z,2.24
2022-11-22T14:22:55.309Z,2.22
2022-11-22T14:24:00.347Z,2.30
2022-11-22T14:25:13.786Z,2.28
2022-11-22T14:26:21.484Z,2.23
2022-11-22T14:27:28.525Z,2.28
2022-11-22T14:28:33.596Z,2.26
2022-11-22T14:29:50.758Z,2.26
2022-11-22T14:30:53.460Z,2.29
2022-11-22T14:32:01.867Z,2.22
2022-11-22T14:33:06.091Z,2.17
2022-11-22T14:35:30.489Z,2.00
2022-11-22T14:36:34.468Z,1.98
2022-11-22T14:37:48.147Z,1.97
2022-11-22T14:38:51.516Z,2.05
2022-11-22T14:40:05.412Z,1.89
2022-11-22T14:41:30.285Z,1.84
2022-11-22T14:42:38.590Z,1.84
2022-11-22T14:43:41.989Z,1.66
2022-11-22T14:44:46.225Z,1.83
2022-11-22T14:45:51.715Z,1.72
2022-11-22T14:46:56.370Z,1.85
2022-11-22T14:48:01.254Z,1.80
2022-11-22T14:49:10.310Z,1.84
2022-11-22T14:50:15.761Z,1.91
2022-11-22T14:51:26.726Z,1.80
2022-11-22T14:52:33.197Z,1.86
2022-11-22T14:53:47.166Z,1.93
2022-11-22T14:54:53.374Z,1.84
2022-11-22T14:56:10.422Z,1.88
2022-11-22T14:57:16.505Z,1.98
2022-11-22T14:58:24.153Z,1.98
2022-11-22T14:59:40.936Z,2.09
2022-11-22T15:01:05.146Z,2.22
2022-11-22T15:02:15.541Z,2.22
2022-11-22T15:03:19.639Z,2.11
2022-11-22T15:09:13.166Z,2.20
2022-11-22T15:09:14.764Z,2.21
2022-11-22T15:09:17.864Z,2.11
2022-11-22T15:09:18.205Z,2.09
2022-11-22T15:09:48.729Z,2.19
2022-11-22T15:10:46.225Z,2.15
2022-11-22T15:12:08.255Z,2.09
2022-11-22T15:13:19.605Z,2.10
2022-11-22T15:14:24.035Z,2.06
2022-11-22T15:58:00.708Z,2.07
2022-11-22T15:59:07.008Z,2.15
2022-11-22T16:00:13.838Z,2.10
2022-11-22T16:01:19.546Z,2.15
2022-11-22T16:02:26.094Z,2.15
2022-11-22T16:03:38.278Z,2.13
2022-11-22T16:04:44.584Z,2.10
2022-11-22T16:06:08.847Z,2.14
2022-11-22T16:06:56.737Z,2.15
2022-11-22T16:08:01.544Z,2.18
2022-11-22T16:09:06.449Z,2.23
2022-11-22T16:10:12.598Z,2.20
2022-11-22T16:11:30.915Z,2.14
2022-11-22T16:12:38.496Z,2.13
2022-11-22T16:13:42.524Z,2.12
2022-11-22T16:14:46.855Z,2.15
2022-11-22T20:39:10.606Z,2.23
2022-11-22T20:40:14.492Z,2.25
2022-11-22T20:42:41.873Z,2.27
2022-11-22T20:43:44.540Z,2.33
2022-11-22T20:44:49.227Z,2.28
2022-11-22T20:46:07.135Z,2.16
2022-11-22T20:47:10.618Z,2.22
2022-11-22T20:48:15.168Z,2.27
2022-11-22T20:49:19.718Z,2.35
2022-11-22T20:50:22.594Z,2.33
2022-11-22T20:51:26.728Z,2.31
2022-11-22T20:52:29.086Z,2.37
2022-11-22T20:53:33.111Z,2.38
2022-11-22T20:54:36.928Z,2.36
2022-11-22T20:55:40.050Z,2.39
2022-11-22T20:56:44.063Z,2.37
2022-11-22T20:57:47.443Z,2.40
2022-11-22T20:58:50.007Z,2.42
2022-11-22T20:59:54.103Z,2.41
2022-11-22T21:00:57.679Z,2.41
2022-11-22T21:02:01.445Z,2.39
2022-11-22T21:03:05.062Z,2.42
2022-11-22T21:04:07.220Z,2.41
2022-11-22T21:05:12.194Z,2.42
2022-11-22T21:06:16.099Z,2.43
2022-11-22T21:07:19.471Z,2.45
2022-11-22T21:08:23.290Z,2.44
2022-11-22T21:09:26.729Z,2.45
2022-11-22T21:10:30.025Z,2.43
2022-11-22T21:11:33.438Z,2.39
2022-11-22T21:12:36.721Z,2.39
2022-11-22T21:13:40.333Z,2.42
2022-11-22T21:14:45.497Z,2.43
2022-11-22T21:15:48.804Z,2.34
2022-11-22T21:16:52.089Z,2.35
2022-11-22T21:18:23.125Z,2.38
2022-11-22T21:19:02.312Z,2.42
2022-11-22T21:20:06.375Z,2.30
2022-11-22T21:21:11.238Z,2.37
2022-11-22T21:22:14.744Z,2.38
2022-11-22T21:23:18.144Z,2.39
2022-11-22T21:24:21.440Z,2.33
2022-11-22T21:25:25.152Z,2.36
2022-11-22T21:26:31.801Z,2.26
2022-11-22T21:27:35.612Z,2.24
2022-11-22T21:28:40.471Z,2.25
2022-11-22T21:29:43.142Z,2.26
2022-11-22T21:30:46.856Z,2.24
2022-11-22T21:31:49.618Z,2.10
2022-11-22T21:32:55.673Z,2.19
2022-11-22T21:33:58.850Z,2.28
2022-11-22T21:35:01.817Z,2.28
2022-11-22T21:36:06.655Z,2.23
2022-11-22T21:37:09.546Z,2.11
2022-11-22T21:38:14.819Z,2.20
2022-11-22T21:39:19.257Z,2.20
2022-11-22T21:40:22.383Z,2.20
2022-11-22T21:41:39.414Z,2.20
2022-11-22T21:42:28.952Z,2.23
2022-11-22T21:43:32.977Z,2.21
2022-11-22T21:44:36.739Z,2.22
2022-11-22T21:45:42.530Z,2.33
2022-11-22T21:46:46.000Z,2.40
2022-11-22T21:47:50.560Z,2.35
2022-11-22T21:48:56.664Z,2.17
2022-11-22T21:50:00.391Z,2.16
2022-11-22T21:51:04.009Z,2.24
2022-11-22T21:52:07.608Z,2.15
2022-11-22T21:53:11.741Z,2.10
2022-11-22T21:54:15.238Z,2.10
2022-11-22T21:55:19.796Z,2.10
2022-11-22T21:56:23.404Z,2.11
2022-11-22T21:57:27.537Z,2.17
2022-11-22T21:58:35.949Z,2.10
2022-11-22T21:59:40.042Z,2.07
2022-11-22T22:00:46.511Z,2.07
2022-11-22T22:01:50.694Z,2.15
2022-11-22T22:02:53.927Z,2.24
2022-11-22T22:03:58.263Z,2.25
2022-11-22T22:05:00.533Z,2.17
2022-11-22T22:06:03.933Z,2.24
2022-11-22T22:07:15.329Z,2.22
2022-11-22T22:08:12.211Z,2.11
2022-11-22T22:09:15.599Z,2.20
2022-11-22T22:10:17.954Z,2.15
2022-11-22T22:11:22.584Z,2.26
2022-11-22T22:12:24.962Z,2.28
2022-11-22T22:13:30.495Z,2.35
2022-11-22T22:14:34.929Z,2.28
2022-11-22T22:15:39.591Z,2.31
2022-11-22T22:16:43.990Z,2.35
2022-11-22T22:17:48.295Z,2.36
2022-11-22T22:18:52.057Z,2.37
2022-11-22T22:19:55.661Z,2.36
2022-11-22T22:21:02.610Z,2.37
2022-11-22T22:22:07.306Z,2.36
2022-11-22T22:23:10.769Z,2.42
2022-11-22T22:24:14.482Z,2.49
2022-11-22T22:25:17.361Z,2.47
2022-11-22T22:26:23.585Z,2.45
2022-11-22T22:27:26.593Z,2.32
2022-11-22T22:28:29.862Z,2.04
2022-11-22T22:29:32.386Z,1.95
2022-11-22T22:30:36.167Z,1.93
2022-11-22T22:31:39.434Z,1.97
2022-11-22T22:32:42.838Z,1.99
2022-11-22T22:33:46.343Z,1.90
2022-11-22T22:34:49.847Z,1.85
2022-11-22T22:35:53.967Z,1.93
2022-11-22T22:36:57.692Z,1.96
2022-11-22T22:38:03.028Z,1.93
2022-11-22T22:39:06.476Z,1.88
2022-11-22T22:40:15.308Z,1.88
2022-11-22T22:41:18.618Z,2.04
2022-11-22T22:43:26.919Z,2.00
2022-11-22T22:44:30.478Z,2.03
2022-11-22T22:45:34.285Z,2.03
2022-11-22T22:46:37.866Z,1.99
2022-11-22T22:47:41.428Z,1.93
2022-11-22T22:48:45.153Z,1.85
2022-11-22T22:49:50.195Z,1.83
2022-11-22T22:50:56.598Z,1.84
2022-11-22T22:51:59.713Z,1.75
2022-11-22T22:53:03.222Z,1.79
2022-11-22T22:54:06.200Z,1.76
2022-11-22T22:55:11.690Z,1.74
2022-11-22T22:56:16.656Z,1.85
2022-11-22T22:57:19.733Z,1.82
2022-11-22T22:58:23.250Z,1.69
2022-11-22T22:59:27.233Z,1.67
2022-11-22T23:00:31.112Z,1.81
2022-11-22T23:01:35.434Z,1.68
2022-11-22T23:02:37.794Z,1.72
2022-11-22T23:03:41.713Z,1.62
2022-11-22T23:04:48.144Z,1.58
2022-11-22T23:05:50.918Z,1.70
2022-11-22T23:06:54.427Z,1.79
2022-11-22T23:07:57.186Z,1.81
2022-11-22T23:09:03.522Z,1.75
2022-11-22T23:10:07.448Z,1.75
2022-11-22T23:11:11.576Z,1.77
2022-11-22T23:12:13.875Z,1.57
2022-11-22T23:13:19.698Z,1.54
2022-11-22T23:14:24.811Z,1.44
2022-11-22T23:15:44.189Z,1.54
2022-11-22T23:16:32.442Z,1.48
2022-11-22T23:17:35.741Z,1.55
2022-11-22T23:18:43.531Z,1.53
2022-11-22T23:19:45.882Z,1.59
2022-11-22T23:20:49.272Z,1.63
2022-11-22T23:21:51.846Z,1.56
2022-11-22T23:22:56.649Z,1.73
2022-11-22T23:23:58.912Z,1.74
2022-11-22T23:25:02.154Z,1.56
2022-11-22T23:26:05.972Z,1.57
2022-11-22T23:27:09.477Z,1.56
2022-11-22T23:28:14.130Z,1.56
2022-11-22T23:29:17.339Z,1.68